Time;durP1;ratioP1;P1;durP2;ratioP2;P2;SDS_P1;SDS_P2;PMS_P1;PMS_P2;Temp;Humidity;BMP_temperature;BMP_pressure;BME280_temperature;BME280_humidity;BME280_pressure;Samples;Min_cycle;Max_cycle;Signal;HPM_P1;HPM_P2
2023/04/24 00:00:05;;;;;;;6.95;3.30;;;13.10;75.40;;;;;;5035454;28;20060;-69
2023/04/24 00:02:32;;;;;;;6.25;3.22;;;13.10;75.50;;;;;;5033917;28;20052;-69
2023/04/24 00:05:02;;;;;;;6.50;3.40;;;13.10;75.40;;;;;;5039970;28;20048;-69
2023/04/24 00:07:29;;;;;;;6.95;4.07;;;13.20;75.40;;;;;;5014576;28;20116;-69
2023/04/24 00:09:55;;;;;;;6.95;3.85;;;13.20;75.40;;;;;;5037011;28;20029;-69
2023/04/24 00:12:21;;;;;;;6.43;3.75;;;13.20;75.30;;;;;;5038435;28;20028;-69
2023/04/24 00:14:46;;;;;;;8.10;4.43;;;13.20;75.40;;;;;;5042405;28;20025;-69
2023/04/24 00:17:13;;;;;;;7.75;4.47;;;13.20;75.50;;;;;;5019209;28;20478;-69
2023/04/24 00:19:38;;;;;;;7.53;4.50;;;13.20;75.50;;;;;;5037614;28;20025;-69
2023/04/24 00:22:05;;;;;;;7.05;4.22;;;13.20;75.50;;;;;;5031970;28;20319;-69
2023/04/24 00:24:31;;;;;;;6.60;4.07;;;13.20;75.50;;;;;;5041390;28;20048;-69
2023/04/24 00:26:57;;;;;;;5.78;3.30;;;13.10;75.60;;;;;;5039546;28;20068;-69
2023/04/24 00:29:23;;;;;;;6.40;3.28;;;13.10;75.70;;;;;;5029916;28;20029;-69
2023/04/24 00:31:49;;;;;;;6.65;2.88;;;13.00;75.70;;;;;;5034199;28;20033;-69
2023/04/24 00:34:14;;;;;;;5.03;2.20;;;13.00;75.80;;;;;;5038524;28;20026;-69
2023/04/24 00:36:40;;;;;;;3.78;2.00;;;13.00;75.90;;;;;;5033516;28;20037;-69
2023/04/24 00:39:08;;;;;;;3.58;1.85;;;13.00;75.80;;;;;;5036100;28;20030;-69
2023/04/24 00:41:36;;;;;;;3.60;1.80;;;13.00;75.80;;;;;;5027835;28;20026;-69
2023/04/24 00:44:02;;;;;;;3.47;1.80;;;13.00;75.80;;;;;;5036063;28;20021;-69
2023/04/24 00:46:28;;;;;;;3.17;1.70;;;13.10;75.90;;;;;;5047915;28;20057;-69
2023/04/24 00:48:55;;;;;;;3.65;1.63;;;13.00;76.50;;;;;;5015926;28;20108;-69
2023/04/24 00:51:21;;;;;;;3.67;1.80;;;13.10;75.90;;;;;;5036019;28;20060;-69
2023/04/24 00:53:47;;;;;;;2.92;1.58;;;13.00;75.80;;;;;;5047796;28;20049;-69
2023/04/24 00:56:13;;;;;;;3.40;1.60;;;13.00;75.90;;;;;;5043278;28;20028;-69
2023/04/24 00:58:41;;;;;;;4.30;2.08;;;13.00;76.10;;;;;;5033627;28;20033;-69
2023/04/24 01:01:08;;;;;;;3.38;1.80;;;13.00;76.20;;;;;;5038689;28;20030;-69
2023/04/24 01:03:36;;;;;;;5.90;2.30;;;13.00;76.30;;;;;;5038754;28;20094;-69
2023/04/24 01:06:03;;;;;;;4.57;2.63;;;13.00;76.30;;;;;;5036342;28;20029;-69
2023/04/24 01:08:28;;;;;;;6.95;3.08;;;13.00;76.40;;;;;;5031295;28;20057;-69
2023/04/24 01:10:57;;;;;;;5.97;3.10;;;13.00;76.50;;;;;;5035705;28;20021;-69
2023/04/24 01:13:23;;;;;;;7.18;3.65;;;13.00;76.50;;;;;;5040350;28;20064;-69
2023/04/24 01:15:49;;;;;;;8.68;4.55;;;13.00;76.50;;;;;;5040856;28;20076;-69
2023/04/24 01:18:15;;;;;;;9.02;5.38;;;12.90;76.60;;;;;;5040479;28;20055;-70
2023/04/24 01:20:44;;;;;;;12.57;6.63;;;12.90;76.60;;;;;;5025347;28;20155;-69
2023/04/24 01:23:10;;;;;;;10.15;6.95;;;12.90;76.70;;;;;;5025881;28;20055;-69
2023/04/24 01:25:36;;;;;;;12.15;8.38;;;12.90;76.70;;;;;;5045500;28;20478;-69
2023/04/24 01:28:03;;;;;;;12.88;9.30;;;12.90;76.70;;;;;;5040564;28;20090;-69
2023/04/24 01:30:29;;;;;;;13.73;9.43;;;12.90;76.60;;;;;;5048217;28;20430;-69
2023/04/24 01:32:58;;;;;;;12.65;8.65;;;12.90;76.70;;;;;;5044615;28;20093;-69
2023/04/24 01:35:24;;;;;;;13.40;9.93;;;12.90;76.70;;;;;;5039916;28;20395;-69
2023/04/24 01:37:50;;;;;;;13.90;9.35;;;12.90;76.70;;;;;;5040747;28;20441;-69
2023/04/24 01:40:16;;;;;;;13.68;9.45;;;12.90;76.80;;;;;;5050483;28;20026;-69
2023/04/24 01:42:42;;;;;;;14.05;9.82;;;12.90;76.80;;;;;;5034229;28;20029;-69
2023/04/24 01:45:10;;;;;;;15.15;10.75;;;12.90;76.80;;;;;;5053597;28;20059;-69
2023/04/24 01:47:36;;;;;;;13.77;9.98;;;12.90;76.90;;;;;;5033978;28;20366;-69
2023/04/24 01:50:03;;;;;;;15.63;10.55;;;12.90;76.90;;;;;;5051150;28;20128;-69
2023/04/24 01:52:31;;;;;;;15.38;10.55;;;12.90;76.90;;;;;;5035975;28;20032;-69
2023/04/24 01:54:59;;;;;;;14.07;10.48;;;12.90;76.90;;;;;;5042147;28;20045;-69
2023/04/24 01:57:25;;;;;;;14.50;10.38;;;12.90;76.90;;;;;;5042831;28;20461;-69
2023/04/24 01:59:51;;;;;;;13.77;9.77;;;12.90;77.00;;;;;;5040313;28;20013;-69
2023/04/24 02:02:17;;;;;;;11.80;8.48;;;12.90;77.10;;;;;;5042437;28;20048;-69
2023/04/24 02:04:43;;;;;;;11.85;7.40;;;12.90;77.30;;;;;;5021105;28;20079;-69
2023/04/24 02:07:09;;;;;;;11.02;6.47;;;12.90;77.30;;;;;;5029845;28;20409;-69
2023/04/24 02:09:35;;;;;;;10.95;7.55;;;12.90;77.40;;;;;;5041042;28;20021;-69
2023/04/24 02:12:00;;;;;;;11.73;8.27;;;12.80;77.40;;;;;;5021190;28;20472;-69
2023/04/24 02:14:26;;;;;;;13.10;9.10;;;12.80;77.60;;;;;;5044973;28;20438;-69
2023/04/24 02:16:53;;;;;;;14.27;10.32;;;12.80;77.60;;;;;;5043845;28;20442;-69
2023/04/24 02:19:19;;;;;;;14.68;10.55;;;12.90;77.70;;;;;;5034030;28;20107;-69
2023/04/24 02:21:45;;;;;;;13.82;10.75;;;12.80;77.70;;;;;;5035317;28;20116;-69
2023/04/24 02:24:10;;;;;;;14.52;10.48;;;12.80;77.70;;;;;;5022563;28;20140;-69
2023/04/24 02:26:36;;;;;;;16.20;10.52;;;12.80;77.70;;;;;;5050190;28;20034;-69
2023/04/24 02:29:02;;;;;;;17.00;11.52;;;12.80;77.60;;;;;;5036041;28;20033;-69
2023/04/24 02:31:28;;;;;;;16.13;12.35;;;12.80;77.60;;;;;;5045565;28;20096;-69
2023/04/24 02:33:54;;;;;;;15.32;11.82;;;12.80;77.70;;;;;;5038863;28;20328;-69
2023/04/24 02:36:20;;;;;;;17.70;12.55;;;12.80;77.70;;;;;;5054543;28;20024;-69
2023/04/24 02:38:47;;;;;;;16.50;11.57;;;12.80;77.70;;;;;;5046395;28;20029;-69
2023/04/24 02:41:13;;;;;;;15.38;11.90;;;12.80;77.70;;;;;;5040858;28;20029;-69
2023/04/24 02:43:39;;;;;;;17.48;12.32;;;12.80;77.80;;;;;;5044074;28;20033;-69
2023/04/24 02:46:05;;;;;;;19.13;13.00;;;12.80;77.70;;;;;;5044451;28;20021;-69
2023/04/24 02:48:30;;;;;;;17.58;13.05;;;12.80;77.70;;;;;;5044257;28;20025;-69
2023/04/24 02:50:57;;;;;;;15.10;11.68;;;12.80;77.80;;;;;;5045258;28;20026;-69
2023/04/24 02:53:23;;;;;;;14.77;11.23;;;12.80;77.80;;;;;;5039128;28;20469;-69
2023/04/24 02:55:49;;;;;;;15.93;10.98;;;12.80;77.70;;;;;;5046191;28;20017;-69
2023/04/24 02:58:15;;;;;;;15.85;11.90;;;12.80;77.70;;;;;;5026865;28;20449;-69
2023/04/24 03:00:41;;;;;;;16.25;12.15;;;12.70;77.70;;;;;;5032133;28;20059;-69
2023/04/24 03:03:07;;;;;;;15.65;11.05;;;12.80;77.90;;;;;;5038964;28;20109;-69
2023/04/24 03:05:32;;;;;;;14.30;11.10;;;12.70;78.60;;;;;;5050568;28;20481;-69
2023/04/24 03:07:58;;;;;;;15.55;11.25;;;12.70;78.00;;;;;;5038161;28;21046;-69
2023/04/24 03:10:24;;;;;;;15.15;10.55;;;12.70;78.00;;;;;;5053084;28;20438;-69
2023/04/24 03:12:50;;;;;;;15.75;11.07;;;12.70;78.00;;;;;;5019617;28;20045;-69
2023/04/24 03:15:18;;;;;;;14.00;10.07;;;12.70;78.20;;;;;;5051462;28;20021;-69
2023/04/24 03:17:43;;;;;;;15.52;11.20;;;12.70;78.20;;;;;;5040817;28;20032;-69
2023/04/24 03:20:09;;;;;;;14.32;10.45;;;12.70;78.20;;;;;;5021271;28;20345;-69
2023/04/24 03:22:36;;;;;;;15.25;10.43;;;12.70;78.20;;;;;;5029555;28;20046;-70
2023/04/24 03:25:05;;;;;;;14.40;10.25;;;12.70;78.30;;;;;;5023783;28;20362;-69
2023/04/24 03:27:31;;;;;;;15.85;10.35;;;12.70;78.40;;;;;;5009988;28;20038;-69
2023/04/24 03:30:03;;;;;;;14.40;10.18;;;12.70;78.40;;;;;;5036069;28;20454;-69
2023/04/24 03:32:52;;;;;;;14.52;10.30;;;12.70;78.40;;;;;;5019294;28;20065;-69
2023/04/24 03:35:22;;;;;;;14.00;10.55;;;12.70;78.40;;;;;;5021819;28;20018;-69
2023/04/24 03:37:48;;;;;;;13.02;9.93;;;12.70;78.40;;;;;;5020504;28;20029;-69
2023/04/24 03:40:35;;;;;;;14.35;10.48;;;12.70;78.30;;;;;;5018212;28;20049;-69
2023/04/24 03:43:04;;;;;;;14.95;10.90;;;12.70;78.30;;;;;;5001772;28;20029;-69
2023/04/24 03:45:30;;;;;;;18.23;12.30;;;12.70;78.30;;;;;;5036173;28;20477;-70
2023/04/24 03:47:56;;;;;;;18.58;12.45;;;12.70;78.30;;;;;;5027289;28;20030;-69
2023/04/24 03:50:22;;;;;;;16.92;13.45;;;12.70;78.30;;;;;;5039528;28;20029;-69
2023/04/24 03:52:48;;;;;;;22.10;15.38;;;12.70;78.40;;;;;;5024344;28;20021;-69
2023/04/24 03:55:23;;;;;;;20.90;15.68;;;12.60;79.00;;;;;;5017298;28;20507;-70
2023/04/24 03:57:49;;;;;;;21.42;14.77;;;12.60;78.30;;;;;;5003787;28;20223;-69
2023/04/24 04:00:21;;;;;;;;;;;12.60;78.30;;;;;;5032434;28;20062;-69
2023/04/24 04:02:53;;;;;;;20.75;15.43;;;12.60;78.20;;;;;;5018787;28;20322;-69
2023/04/24 04:05:19;;;;;;;23.63;17.10;;;12.60;78.20;;;;;;5023378;28;20088;-69
2023/04/24 04:07:45;;;;;;;22.20;16.80;;;12.60;78.30;;;;;;5037980;28;20402;-69
2023/04/24 04:10:11;;;;;;;23.38;16.92;;;12.60;78.20;;;;;;5033641;28;20428;-69
2023/04/24 04:12:37;;;;;;;21.98;17.00;;;12.60;78.20;;;;;;5031258;28;20021;-69
2023/04/24 04:15:03;;;;;;;21.75;16.02;;;12.60;78.10;;;;;;5019077;28;20148;-69
2023/04/24 04:17:29;;;;;;;22.30;17.15;;;12.60;78.10;;;;;;5001613;28;20457;-69
2023/04/24 04:19:56;;;;;;;19.98;15.93;;;12.50;78.00;;;;;;5000656;28;20157;-69
2023/04/24 04:22:22;;;;;;;19.88;15.88;;;12.50;78.00;;;;;;5014877;28;20045;-69
2023/04/24 04:24:50;;;;;;;23.23;17.40;;;12.60;78.10;;;;;;5033845;28;20026;-69
2023/04/24 04:27:18;;;;;;;19.40;15.90;;;12.50;78.00;;;;;;5029208;28;20033;-69
2023/04/24 04:29:50;;;;;;;;;;;12.50;77.90;;;;;;5028633;28;20025;-70
2023/04/24 04:32:16;;;;;;;17.58;14.35;;;12.50;77.90;;;;;;5029615;28;19917;-70
2023/04/24 04:34:42;;;;;;;20.25;15.00;;;12.40;77.90;;;;;;5031673;28;20521;-69
2023/04/24 04:37:12;;;;;;;21.58;16.15;;;12.40;77.80;;;;;;5031112;28;20087;-69
2023/04/24 04:39:49;;;;;;;20.23;16.95;;;12.40;77.80;;;;;;5031140;28;20024;-69
2023/04/24 04:42:23;;;;;;;20.02;15.07;;;12.40;77.80;;;;;;5030685;28;20029;-69
2023/04/24 04:44:50;;;;;;;21.00;15.93;;;12.30;77.70;;;;;;5014866;28;20063;-68
2023/04/24 04:47:24;;;;;;;20.55;15.05;;;12.30;77.80;;;;;;5031920;28;20029;-68
2023/04/24 04:49:53;;;;;;;19.85;15.73;;;12.30;77.80;;;;;;5016703;28;20021;-68
2023/04/24 04:52:25;;;;;;;17.83;14.63;;;12.30;77.90;;;;;;5031139;28;20025;-69
2023/04/24 04:54:55;;;;;;;19.45;15.07;;;12.30;77.90;;;;;;5034687;28;20022;-69
2023/04/24 04:57:25;;;;;;;22.08;15.52;;;12.20;77.80;;;;;;5019310;28;20396;-69
2023/04/24 04:59:51;;;;;;;20.27;13.82;;;12.20;77.90;;;;;;5044316;28;20104;-69
2023/04/24 05:02:29;;;;;;;21.50;14.25;;;12.20;77.80;;;;;;5037862;28;20362;-70
2023/04/24 05:04:55;;;;;;;17.25;13.45;;;12.20;77.90;;;;;;5019499;28;20021;-70
2023/04/24 05:07:21;;;;;;;18.27;14.20;;;12.20;77.90;;;;;;5041232;28;20029;-70
2023/04/24 05:09:52;;;;;;;18.00;13.88;;;12.20;77.90;;;;;;5041628;28;20027;-70
2023/04/24 05:12:18;;;;;;;18.70;14.20;;;12.20;77.90;;;;;;5029363;28;20120;-70
2023/04/24 05:14:50;;;;;;;19.92;13.27;;;12.20;78.10;;;;;;5055192;28;20032;-70
2023/04/24 05:17:18;;;;;;;17.25;13.20;;;12.20;78.10;;;;;;5043255;28;20119;-70
2023/04/24 05:19:44;;;;;;;15.80;12.70;;;12.20;78.20;;;;;;5056209;28;20053;-70
2023/04/24 05:22:11;;;;;;;16.80;12.63;;;12.20;78.10;;;;;;5035180;28;20349;-70
2023/04/24 05:24:46;;;;;;;17.70;13.07;;;12.20;78.20;;;;;;5043597;28;20057;-70
2023/04/24 05:27:39;;;;;;;16.50;12.57;;;12.20;78.30;;;;;;5036552;28;20029;-69
2023/04/24 05:30:10;;;;;;;16.88;12.98;;;12.20;78.40;;;;;;5056007;28;20527;-70
2023/04/24 05:32:36;;;;;;;16.02;12.18;;;12.20;78.40;;;;;;5056060;28;20346;-70
2023/04/24 05:35:02;;;;;;;17.35;12.48;;;12.20;78.40;;;;;;5047500;28;20034;-70
2023/04/24 05:37:28;;;;;;;16.55;12.40;;;12.20;78.40;;;;;;5055691;28;20117;-70
2023/04/24 05:39:54;;;;;;;16.27;11.57;;;12.20;78.40;;;;;;5054323;28;20127;-70
2023/04/24 05:42:20;;;;;;;15.00;11.73;;;12.30;78.50;;;;;;5046369;28;20442;-70
2023/04/24 05:44:46;;;;;;;15.15;11.88;;;12.30;78.50;;;;;;5035002;28;20071;-69
2023/04/24 05:47:11;;;;;;;14.27;10.85;;;12.30;79.20;;;;;;5035733;28;20040;-70
2023/04/24 05:49:37;;;;;;;15.18;10.73;;;12.30;78.50;;;;;;5015548;28;20154;-70
2023/04/24 05:52:05;;;;;;;13.82;10.90;;;12.40;78.60;;;;;;5051963;28;20025;-70
2023/04/24 05:54:31;;;;;;;15.25;10.55;;;12.40;78.60;;;;;;5047232;28;20360;-69
2023/04/24 05:56:56;;;;;;;13.85;9.73;;;12.40;78.50;;;;;;5019726;28;20032;-69
2023/04/24 05:59:40;;;;;;;13.93;9.55;;;12.40;78.50;;;;;;5046488;28;20037;-69
2023/04/24 06:02:07;;;;;;;15.27;9.88;;;12.40;78.50;;;;;;5028981;28;20184;-68
2023/04/24 06:04:33;;;;;;;14.98;9.77;;;12.40;78.50;;;;;;5030850;28;20071;-70
2023/04/24 06:06:59;;;;;;;13.20;9.63;;;12.50;78.50;;;;;;5029720;28;20029;-70
2023/04/24 06:09:25;;;;;;;13.40;9.15;;;12.50;78.50;;;;;;5030378;28;20025;-71
2023/04/24 06:11:54;;;;;;;13.25;9.10;;;12.50;78.50;;;;;;5030715;28;20481;-70
2023/04/24 06:14:23;;;;;;;12.05;8.75;;;12.60;78.60;;;;;;5024000;28;20053;-70
2023/04/24 06:17:08;;;;;;;11.77;8.05;;;12.60;78.60;;;;;;5029300;28;20559;-68
2023/04/24 06:19:37;;;;;;;12.25;8.18;;;12.60;78.60;;;;;;5028048;28;20034;-69
2023/04/24 06:22:04;;;;;;;15.27;9.25;;;12.50;78.60;;;;;;5028928;28;20033;-69
2023/04/24 06:24:30;;;;;;;12.20;7.68;;;12.60;78.70;;;;;;5028760;28;20050;-68
2023/04/24 06:26:58;;;;;;;12.55;8.32;;;12.60;78.70;;;;;;5012016;28;20100;-67
2023/04/24 06:29:24;;;;;;;11.23;7.43;;;12.60;79.00;;;;;;5027604;28;20041;-68
2023/04/24 06:31:50;;;;;;;10.60;7.18;;;12.60;78.70;;;;;;5030067;28;20025;-68
2023/04/24 06:34:16;;;;;;;13.13;7.72;;;12.60;78.70;;;;;;5028743;28;20035;-67
2023/04/24 06:36:41;;;;;;;11.57;7.90;;;12.60;78.70;;;;;;5028419;28;20092;-67
2023/04/24 06:39:07;;;;;;;10.63;7.85;;;12.70;78.80;;;;;;5029061;28;20442;-69
2023/04/24 06:41:33;;;;;;;10.73;6.93;;;12.70;78.80;;;;;;5029064;28;21280;-72
2023/04/24 06:43:58;;;;;;;10.40;7.47;;;12.70;78.80;;;;;;5030615;28;20124;-71
2023/04/24 06:46:25;;;;;;;11.07;7.28;;;12.70;78.70;;;;;;5029803;28;20220;-68
2023/04/24 06:48:55;;;;;;;10.60;7.03;;;12.70;78.80;;;;;;5028265;28;20057;-69
2023/04/24 06:51:23;;;;;;;11.02;6.47;;;12.70;78.80;;;;;;5028852;28;20628;-70
2023/04/24 06:53:49;;;;;;;9.68;6.13;;;12.70;78.80;;;;;;5027387;28;20025;-68
2023/04/24 06:56:15;;;;;;;9.18;5.57;;;12.70;78.80;;;;;;5028339;28;20128;-67
2023/04/24 06:58:42;;;;;;;10.68;5.45;;;12.80;78.80;;;;;;5030090;28;20026;-68
2023/04/24 07:01:07;;;;;;;7.95;4.97;;;12.80;78.80;;;;;;5027377;28;20040;-68
2023/04/24 07:03:33;;;;;;;9.63;5.68;;;12.80;78.80;;;;;;5028269;28;20505;-67
2023/04/24 07:05:59;;;;;;;7.65;4.40;;;12.80;78.70;;;;;;5030066;28;20109;-68
2023/04/24 07:08:25;;;;;;;7.38;3.75;;;12.90;78.70;;;;;;5029164;28;20029;-67
2023/04/24 07:10:51;;;;;;;7.40;3.67;;;12.90;78.60;;;;;;5028014;28;20029;-68
2023/04/24 07:13:17;;;;;;;6.45;2.92;;;12.90;78.50;;;;;;5033401;28;20124;-67
2023/04/24 07:15:43;;;;;;;7.20;3.22;;;12.90;78.60;;;;;;5027755;28;20029;-67
2023/04/24 07:18:09;;;;;;;5.53;2.65;;;12.80;78.60;;;;;;5027855;28;20033;-69
2023/04/24 07:20:35;;;;;;;5.38;2.55;;;12.80;78.60;;;;;;5027500;28;20318;-70
2023/04/24 07:23:01;;;;;;;5.60;2.72;;;12.80;78.70;;;;;;5029102;28;20041;-68
2023/04/24 07:25:28;;;;;;;5.25;2.50;;;12.80;78.70;;;;;;5030322;28;20184;-68
2023/04/24 07:27:54;;;;;;;4.35;1.90;;;12.80;78.70;;;;;;5030493;28;20448;-70
2023/04/24 07:30:20;;;;;;;4.55;1.85;;;12.70;78.80;;;;;;5031281;28;20025;-68
2023/04/24 07:32:45;;;;;;;5.03;2.00;;;12.70;78.90;;;;;;5029447;28;20082;-70
2023/04/24 07:35:11;;;;;;;4.18;1.83;;;12.60;79.00;;;;;;5027163;28;20021;-70
2023/04/24 07:37:37;;;;;;;3.47;1.45;;;12.60;79.00;;;;;;5027954;28;20029;-70
2023/04/24 07:40:03;;;;;;;3.65;1.55;;;12.60;79.00;;;;;;5027833;28;20025;-72
2023/04/24 07:42:30;;;;;;;2.42;1.23;;;12.60;79.00;;;;;;5029524;28;20124;-71
2023/04/24 07:45:00;;;;;;;3.28;1.40;;;12.60;79.00;;;;;;5012598;28;20021;-69
2023/04/24 07:47:26;;;;;;;3.97;1.90;;;12.60;78.90;;;;;;5029838;28;20033;-70
2023/04/24 07:49:52;;;;;;;4.97;2.33;;;12.50;78.90;;;;;;5031184;28;20064;-69
2023/04/24 07:52:17;;;;;;;6.05;2.38;;;12.40;79.00;;;;;;5026500;28;20079;-69
2023/04/24 07:54:43;;;;;;;5.90;2.58;;;12.40;79.10;;;;;;5028397;28;20029;-71
2023/04/24 07:57:09;;;;;;;6.57;2.95;;;12.40;79.10;;;;;;5027726;28;20025;-71
2023/04/24 07:59:35;;;;;;;6.93;3.55;;;12.40;79.70;;;;;;5027791;28;20128;-70
2023/04/24 08:02:01;;;;;;;7.35;3.22;;;12.40;78.90;;;;;;5024012;28;20117;-73
2023/04/24 08:04:27;;;;;;;6.72;3.45;;;12.30;78.80;;;;;;5030090;28;20021;-72
2023/04/24 08:06:53;;;;;;;8.98;4.25;;;12.30;78.80;;;;;;5030539;28;20516;-70
2023/04/24 08:09:18;;;;;;;7.95;4.30;;;12.30;78.80;;;;;;5032422;28;20029;-71
2023/04/24 08:11:44;;;;;;;8.15;4.28;;;12.30;78.80;;;;;;5028302;28;20053;-70
2023/04/24 08:14:12;;;;;;;7.88;4.30;;;12.30;78.80;;;;;;5026511;28;20201;-72
2023/04/24 08:16:38;;;;;;;9.75;4.60;;;12.30;78.70;;;;;;5027772;28;20029;-72
2023/04/24 08:19:03;;;;;;;7.53;4.38;;;12.30;78.60;;;;;;5026949;28;20143;-73
2023/04/24 08:21:29;;;;;;;9.00;4.72;;;12.30;78.60;;;;;;5043160;28;20049;-71
2023/04/24 08:23:55;;;;;;;9.65;4.72;;;12.30;78.50;;;;;;5026709;28;20423;-71
2023/04/24 08:26:21;;;;;;;8.18;4.65;;;12.20;78.50;;;;;;5024574;28;20033;-73
2023/04/24 08:28:46;;;;;;;10.45;5.15;;;12.20;78.50;;;;;;5026756;28;20045;-71
2023/04/24 08:31:12;;;;;;;8.32;4.70;;;12.20;78.40;;;;;;5028328;28;20139;-70
2023/04/24 08:33:38;;;;;;;8.45;4.40;;;12.30;78.40;;;;;;5034411;28;20057;-69
2023/04/24 08:36:05;;;;;;;8.40;4.63;;;12.20;78.30;;;;;;5033873;28;20029;-71
2023/04/24 08:38:31;;;;;;;8.60;5.00;;;12.20;78.20;;;;;;5034226;28;20096;-70
2023/04/24 08:40:59;;;;;;;9.60;5.07;;;12.20;78.20;;;;;;5037354;28;20112;-70
2023/04/24 08:43:26;;;;;;;8.48;4.93;;;12.10;78.20;;;;;;5033668;28;20179;-69
2023/04/24 08:45:52;;;;;;;10.70;6.03;;;12.20;78.20;;;;;;5033966;28;20034;-69
2023/04/24 08:48:18;;;;;;;10.35;5.63;;;12.20;78.20;;;;;;5032203;28;20033;-68
2023/04/24 08:50:44;;;;;;;10.88;5.25;;;12.20;78.20;;;;;;5031496;28;20025;-68
2023/04/24 08:53:11;;;;;;;9.38;5.70;;;12.20;78.20;;;;;;5033374;28;20044;-68
2023/04/24 08:55:37;;;;;;;10.55;5.68;;;12.20;78.10;;;;;;5032222;28;20060;-72
2023/04/24 08:58:03;;;;;;;9.52;5.60;;;12.20;78.10;;;;;;5032248;28;20033;-72
2023/04/24 09:00:29;;;;;;;11.23;5.72;;;12.20;78.20;;;;;;5035624;28;20303;-69
2023/04/24 09:02:56;;;;;;;9.05;5.47;;;12.20;78.10;;;;;;5033573;28;20099;-70
2023/04/24 09:05:23;;;;;;;9.73;4.95;;;12.20;78.20;;;;;;5033266;28;20104;-70
2023/04/24 09:07:57;;;;;;;9.45;4.53;;;12.20;78.10;;;;;;5030051;28;20032;-69
2023/04/24 09:10:24;;;;;;;8.98;4.10;;;12.20;78.20;;;;;;5031440;28;20029;-70
2023/04/24 09:12:51;;;;;;;8.95;4.45;;;12.10;78.10;;;;;;5034460;28;20399;-70
2023/04/24 09:15:18;;;;;;;9.35;3.78;;;12.10;78.20;;;;;;5032998;28;20032;-69
2023/04/24 09:17:44;;;;;;;11.23;4.15;;;12.10;78.40;;;;;;5031090;28;20025;-69
2023/04/24 09:20:10;;;;;;;7.32;3.15;;;12.10;78.30;;;;;;5032776;28;20087;-69
2023/04/24 09:22:36;;;;;;;6.53;3.10;;;12.10;78.20;;;;;;5035410;28;20486;-69
2023/04/24 09:25:05;;;;;;;11.10;3.60;;;12.10;78.10;;;;;;5005644;28;20022;-69
2023/04/24 09:27:31;;;;;;;9.13;2.92;;;12.10;78.00;;;;;;5031851;28;20056;-68
2023/04/24 09:29:58;;;;;;;8.07;3.38;;;12.10;78.00;;;;;;5029160;28;20076;-69
2023/04/24 09:32:29;;;;;;;9.43;3.67;;;12.20;78.00;;;;;;5031678;28;20049;-71
2023/04/24 09:35:09;;;;;;;9.70;3.45;;;12.20;77.80;;;;;;5031205;28;20037;-69
2023/04/24 09:37:39;;;;;;;12.73;3.03;;;12.20;77.60;;;;;;5030522;28;20029;-69
2023/04/24 09:40:19;;;;;;;7.65;3.17;;;12.20;77.60;;;;;;5031815;28;20506;-69
2023/04/24 09:43:01;;;;;;;9.40;2.67;;;12.30;77.50;;;;;;5049546;28;20029;-68
2023/04/24 09:45:28;;;;;;;9.00;3.08;;;12.30;77.30;;;;;;5050465;28;20033;-69
2023/04/24 09:47:55;;;;;;;7.38;2.20;;;12.40;77.20;;;;;;5048492;28;20086;-70
2023/04/24 09:50:21;;;;;;;7.32;2.25;;;12.40;77.00;;;;;;5035085;28;20458;-68
2023/04/24 09:52:59;;;;;;;7.97;2.55;;;12.40;76.70;;;;;;5035700;28;20048;-68
2023/04/24 09:55:25;;;;;;;11.45;3.13;;;12.50;76.50;;;;;;5042184;28;20036;-68
2023/04/24 09:58:00;;;;;;;9.63;2.80;;;12.50;76.10;;;;;;5056363;28;20101;-69
2023/04/24 10:00:30;;;;;;;11.10;3.00;;;12.60;75.80;;;;;;5034330;28;20034;-68
2023/04/24 10:02:57;;;;;;;8.73;2.38;;;12.70;75.60;;;;;;5033267;28;20017;-68
2023/04/24 10:05:31;;;;;;;8.38;3.10;;;12.70;75.50;;;;;;5045652;28;20031;-69
2023/04/24 10:08:05;;;;;;;7.50;2.70;;;12.80;75.40;;;;;;5055933;28;20029;-68
2023/04/24 10:10:32;;;;;;;8.38;2.30;;;12.90;75.20;;;;;;5042000;28;20104;-69
2023/04/24 10:13:00;;;;;;;10.50;2.40;;;13.00;75.00;;;;;;5034506;28;20451;-68
2023/04/24 10:15:26;;;;;;;11.63;3.30;;;13.10;74.80;;;;;;5044770;28;20051;-70
2023/04/24 10:17:53;;;;;;;10.60;2.95;;;13.10;74.50;;;;;;5050964;28;20033;-69
2023/04/24 10:20:24;;;;;;;7.03;2.65;;;13.20;74.30;;;;;;5046204;28;20029;-68
2023/04/24 10:22:52;;;;;;;11.50;3.08;;;13.30;74.00;;;;;;5043679;28;20033;-69
2023/04/24 10:25:26;;;;;;;8.27;2.70;;;13.50;73.70;;;;;;5025628;28;20037;-69
2023/04/24 10:27:57;;;;;;;11.90;3.17;;;13.60;73.30;;;;;;5036441;28;20462;-69
2023/04/24 10:30:23;;;;;;;9.68;2.47;;;13.90;72.90;;;;;;5033836;28;20037;-68
2023/04/24 10:32:49;;;;;;;8.13;2.60;;;14.30;72.30;;;;;;5036603;28;20034;-69
2023/04/24 10:35:17;;;;;;;9.13;3.13;;;14.60;71.40;;;;;;5041907;28;20102;-68
2023/04/24 10:37:50;;;;;;;9.15;2.42;;;14.80;70.70;;;;;;5036893;28;20370;-68
2023/04/24 10:40:25;;;;;;;6.95;2.45;;;14.90;70.40;;;;;;5041040;28;20467;-69
2023/04/24 10:42:55;;;;;;;7.75;2.58;;;14.80;70.20;;;;;;5031872;28;20035;-68
2023/04/24 10:45:22;;;;;;;7.07;2.60;;;14.80;70.10;;;;;;5036707;28;20036;-69
2023/04/24 10:47:59;;;;;;;9.05;2.78;;;14.70;70.00;;;;;;5020987;28;20025;-69
2023/04/24 10:50:27;;;;;;;7.15;2.40;;;14.40;68.80;;;;;;5036342;28;20025;-69
2023/04/24 10:52:55;;;;;;;7.68;2.20;;;14.20;69.30;;;;;;5035501;28;20095;-69
2023/04/24 10:55:48;;;;;;;6.32;2.13;;;14.00;69.30;;;;;;5034899;28;20025;-69
2023/04/24 10:58:16;;;;;;;10.35;2.60;;;13.90;69.40;;;;;;5035452;28;20024;-69
2023/04/24 11:00:44;;;;;;;6.95;2.20;;;13.90;69.40;;;;;;5031876;28;20454;-68
2023/04/24 11:03:33;;;;;;;6.32;1.98;;;13.90;69.10;;;;;;5033558;28;20060;-67
2023/04/24 11:06:02;;;;;;;9.20;2.58;;;14.00;68.90;;;;;;5032343;28;20061;-67
2023/04/24 11:08:44;;;;;;;5.38;2.10;;;14.00;68.80;;;;;;5039192;28;20036;-68
2023/04/24 11:11:13;;;;;;;7.65;2.00;;;14.00;68.40;;;;;;5047677;28;20029;-68
2023/04/24 11:13:56;;;;;;;7.30;2.20;;;14.00;68.40;;;;;;5029444;28;20423;-68
2023/04/24 11:16:34;;;;;;;6.72;1.98;;;13.90;68.30;;;;;;5033586;28;20117;-68
2023/04/24 11:19:14;;;;;;;6.05;1.35;;;13.80;69.10;;;;;;5033504;28;20052;-68
2023/04/24 11:22:01;;;;;;;6.75;2.15;;;13.70;68.50;;;;;;5018784;28;20089;-69
2023/04/24 11:24:28;;;;;;;5.18;1.98;;;13.60;68.60;;;;;;5032075;28;20128;-68
2023/04/24 11:26:56;;;;;;;6.22;1.92;;;13.70;68.40;;;;;;5032272;28;20042;-69
2023/04/24 11:29:23;;;;;;;5.78;1.73;;;13.70;68.00;;;;;;5030500;28;20041;-70
2023/04/24 11:31:52;;;;;;;4.72;1.52;;;13.80;67.80;;;;;;5031380;28;20118;-70
2023/04/24 11:34:18;;;;;;;9.23;1.67;;;13.80;67.50;;;;;;5032309;28;20052;-69
2023/04/24 11:36:45;;;;;;;6.78;1.98;;;13.80;67.10;;;;;;5031472;28;20048;-69
2023/04/24 11:39:11;;;;;;;5.85;1.77;;;13.70;66.90;;;;;;5030659;28;20128;-69
2023/04/24 11:41:37;;;;;;;5.43;1.55;;;13.70;66.90;;;;;;5032643;28;20477;-69
2023/04/24 11:44:06;;;;;;;3.88;1.17;;;13.70;66.80;;;;;;5031661;28;20021;-69
2023/04/24 11:46:32;;;;;;;6.72;1.30;;;13.70;66.50;;;;;;5031326;28;20091;-69
2023/04/24 11:48:59;;;;;;;3.13;1.13;;;13.80;66.50;;;;;;5029602;28;20041;-69
2023/04/24 11:51:26;;;;;;;3.70;1.00;;;13.90;66.40;;;;;;5030957;28;20034;-70
2023/04/24 11:53:53;;;;;;;6.03;1.25;;;14.00;66.10;;;;;;5029527;28;20052;-69
2023/04/24 11:56:25;;;;;;;3.83;1.05;;;14.00;65.70;;;;;;5025882;28;20025;-69
2023/04/24 11:58:54;;;;;;;3.28;1.10;;;13.90;65.80;;;;;;5023901;28;20029;-69
2023/04/24 12:01:20;;;;;;;3.95;1.13;;;13.90;65.60;;;;;;5027647;28;20415;-68
2023/04/24 12:03:51;;;;;;;3.42;0.93;;;13.80;65.60;;;;;;5032095;28;20084;-70
2023/04/24 12:06:17;;;;;;;2.85;0.77;;;13.80;65.80;;;;;;5010841;28;20041;-70
2023/04/24 12:08:48;;;;;;;3.13;1.13;;;13.70;65.90;;;;;;5033746;28;20518;-70
2023/04/24 12:11:16;;;;;;;3.50;0.83;;;13.70;66.10;;;;;;5030938;28;20113;-69
2023/04/24 12:13:42;;;;;;;3.55;1.30;;;13.50;66.50;;;;;;5032659;28;20044;-70
2023/04/24 12:16:08;;;;;;;4.13;1.40;;;13.40;67.00;;;;;;5031958;28;20033;-68
2023/04/24 12:18:35;;;;;;;2.95;1.20;;;13.30;67.50;;;;;;5035372;28;20107;-69
2023/04/24 12:21:20;;;;;;;4.03;1.02;;;13.30;67.90;;;;;;5040156;28;20035;-69
2023/04/24 12:23:46;;;;;;;2.63;0.80;;;13.30;68.30;;;;;;5043431;28;21257;-69
2023/04/24 12:26:17;;;;;;;3.70;1.27;;;13.30;68.30;;;;;;5018208;28;20025;-68
2023/04/24 12:28:48;;;;;;;3.92;1.10;;;13.40;68.50;;;;;;5031041;28;20033;-69
2023/04/24 12:31:14;;;;;;;2.35;1.23;;;13.40;68.40;;;;;;5029835;28;20032;-68
2023/04/24 12:33:39;;;;;;;4.15;1.38;;;13.50;68.40;;;;;;5031695;28;20017;-69
2023/04/24 12:36:06;;;;;;;3.05;1.10;;;13.50;68.30;;;;;;5016187;28;20022;-69
2023/04/24 12:38:39;;;;;;;3.42;1.35;;;13.60;68.20;;;;;;5031640;28;20310;-69
2023/04/24 12:41:10;;;;;;;5.97;1.20;;;13.70;67.90;;;;;;5032198;28;20072;-69
2023/04/24 12:43:36;;;;;;;4.28;1.10;;;13.80;67.70;;;;;;5038204;28;20461;-70